sensor_id;sensor_type;location;lat;lon;timestamp;pressure;altitude;pressure_sealevel;temperature;humidity
22257;BME280;11297;42.686;23.374;2022-08-01T00:01:33;94882.06;;;24.37;47.25
22257;BME280;11297;42.686;23.374;2022-08-01T00:03:58;94880.38;;;23.96;48.37
22257;BME280;11297;42.686;23.374;2022-08-01T00:06:24;94882.72;;;23.76;48.64
22257;BME280;11297;42.686;23.374;2022-08-01T00:08:49;94882.41;;;23.47;49.68
22257;BME280;11297;42.686;23.374;2022-08-01T00:11:15;94885.13;;;23.05;51.52
22257;BME280;11297;42.686;23.374;2022-08-01T00:13:40;94887.72;;;22.74;51.77
22257;BME280;11297;42.686;23.374;2022-08-01T00:16:06;94900.13;;;22.25;53.32
22257;BME280;11297;42.686;23.374;2022-08-01T00:18:31;94894.69;;;21.87;54.66
22257;BME280;11297;42.686;23.374;2022-08-01T00:20:57;94893.94;;;21.90;55.48
22257;BME280;11297;42.686;23.374;2022-08-01T00:23:22;94899.56;;;21.78;55.13
22257;BME280;11297;42.686;23.374;2022-08-01T00:25:47;94897.66;;;21.78;55.78
22257;BME280;11297;42.686;23.374;2022-08-01T00:28:13;94900.34;;;21.85;55.14
22257;BME280;11297;42.686;23.374;2022-08-01T00:30:38;94904.16;;;21.91;55.10
22257;BME280;11297;42.686;23.374;2022-08-01T00:33:04;94906.78;;;21.88;55.24
22257;BME280;11297;42.686;23.374;2022-08-01T00:35:29;94894.69;;;21.90;55.13
22257;BME280;11297;42.686;23.374;2022-08-01T00:37:55;94903.81;;;22.00;55.64
22257;BME280;11297;42.686;23.374;2022-08-01T00:40:20;94901.91;;;22.04;55.13
22257;BME280;11297;42.686;23.374;2022-08-01T00:42:46;94898.16;;;22.08;54.37
22257;BME280;11297;42.686;23.374;2022-08-01T00:45:12;94896.28;;;22.08;53.71
22257;BME280;11297;42.686;23.374;2022-08-01T00:47:37;94901.97;;;22.17;53.65
22257;BME280;11297;42.686;23.374;2022-08-01T00:50:04;94896.28;;;22.15;54.14
22257;BME280;11297;42.686;23.374;2022-08-01T00:52:30;94897.88;;;22.30;54.51
22257;BME280;11297;42.686;23.374;2022-08-01T00:54:56;94897.13;;;22.44;55.77
22257;BME280;11297;42.686;23.374;2022-08-01T00:57:22;94889.22;;;22.61;54.61
22257;BME280;11297;42.686;23.374;2022-08-01T00:59:47;94890.38;;;22.84;55.14
22257;BME280;11297;42.686;23.374;2022-08-01T01:02:13;94886.59;;;22.92;53.64
22257;BME280;11297;42.686;23.374;2022-08-01T01:04:38;94885.88;;;23.02;53.51
22257;BME280;11297;42.686;23.374;2022-08-01T01:07:17;94880.53;;;23.19;54.84
22257;BME280;11297;42.686;23.374;2022-08-01T01:10:03;94867.63;;;23.42;53.55
22257;BME280;11297;42.686;23.374;2022-08-01T01:12:44;94867.56;;;23.63;53.29
22257;BME280;11297;42.686;23.374;2022-08-01T01:15:20;94869.03;;;23.81;52.87
22257;BME280;11297;42.686;23.374;2022-08-01T01:20:21;94865.94;;;23.97;50.74
22257;BME280;11297;42.686;23.374;2022-08-01T01:29:17;94855.69;;;24.02;53.05
22257;BME280;11297;42.686;23.374;2022-08-01T01:31:51;94857.47;;;24.22;52.24
22257;BME280;11297;42.686;23.374;2022-08-01T01:34:18;94854.38;;;24.38;51.04
22257;BME280;11297;42.686;23.374;2022-08-01T01:36:45;94827.44;;;24.29;50.88
22257;BME280;11297;42.686;23.374;2022-08-01T01:39:13;94849.03;;;24.41;51.36
22257;BME280;11297;42.686;23.374;2022-08-01T01:41:40;94850.94;;;24.41;50.67
22257;BME280;11297;42.686;23.374;2022-08-01T01:44:07;94851.31;;;24.39;50.54
22257;BME280;11297;42.686;23.374;2022-08-01T01:46:35;94835.38;;;24.32;48.80
22257;BME280;11297;42.686;23.374;2022-08-01T01:49:02;94841.41;;;24.47;50.73
22257;BME280;11297;42.686;23.374;2022-08-01T01:51:28;94842.81;;;24.61;49.87
22257;BME280;11297;42.686;23.374;2022-08-01T01:53:55;94837.44;;;24.68;49.51
22257;BME280;11297;42.686;23.374;2022-08-01T01:56:23;94832.81;;;24.79;48.38
22257;BME280;11297;42.686;23.374;2022-08-01T01:58:53;94836.09;;;24.94;48.05
22257;BME280;11297;42.686;23.374;2022-08-01T02:01:21;94837.13;;;25.10;46.01
22257;BME280;11297;42.686;23.374;2022-08-01T02:03:49;94823.22;;;24.89;45.14
22257;BME280;11297;42.686;23.374;2022-08-01T02:06:16;94828.84;;;25.01;45.44
22257;BME280;11297;42.686;23.374;2022-08-01T02:08:42;94830.09;;;24.86;45.15
22257;BME280;11297;42.686;23.374;2022-08-01T02:11:09;94833.63;;;24.69;45.60
22257;BME280;11297;42.686;23.374;2022-08-01T02:13:48;94824.78;;;24.36;45.95
22257;BME280;11297;42.686;23.374;2022-08-01T02:16:16;94827.91;;;24.17;46.56
22257;BME280;11297;42.686;23.374;2022-08-01T02:18:42;94828.34;;;24.05;46.40
22257;BME280;11297;42.686;23.374;2022-08-01T02:21:09;94830.28;;;23.98;46.84
22257;BME280;11297;42.686;23.374;2022-08-01T02:23:38;94827.66;;;23.91;47.25
22257;BME280;11297;42.686;23.374;2022-08-01T02:26:10;94830.81;;;23.61;47.80
22257;BME280;11297;42.686;23.374;2022-08-01T02:28:50;94830.88;;;23.41;49.05
22257;BME280;11297;42.686;23.374;2022-08-01T02:31:21;94828.19;;;23.48;48.62
22257;BME280;11297;42.686;23.374;2022-08-01T02:34:06;94830.50;;;23.28;51.67
22257;BME280;11297;42.686;23.374;2022-08-01T02:36:35;94823.72;;;23.24;49.03
22257;BME280;11297;42.686;23.374;2022-08-01T02:39:09;94825.59;;;23.27;49.08
22257;BME280;11297;42.686;23.374;2022-08-01T02:41:41;94824.13;;;23.08;49.74
22257;BME280;11297;42.686;23.374;2022-08-01T02:44:09;94826.03;;;23.01;49.89
22257;BME280;11297;42.686;23.374;2022-08-01T02:46:41;94830.56;;;23.07;48.44
22257;BME280;11297;42.686;23.374;2022-08-01T02:49:10;94833.59;;;23.09;48.83
22257;BME280;11297;42.686;23.374;2022-08-01T02:51:38;94832.47;;;23.04;49.05
22257;BME280;11297;42.686;23.374;2022-08-01T02:54:06;94823.00;;;22.96;49.13
22257;BME280;11297;42.686;23.374;2022-08-01T02:56:40;94820.75;;;22.98;52.79
22257;BME280;11297;42.686;23.374;2022-08-01T02:59:12;94824.16;;;22.74;50.12
22257;BME280;11297;42.686;23.374;2022-08-01T03:01:40;94825.28;;;22.94;50.41
22257;BME280;11297;42.686;23.374;2022-08-01T03:04:07;94829.44;;;23.05;48.63
22257;BME280;11297;42.686;23.374;2022-08-01T03:06:34;94830.94;;;22.64;51.01
22257;BME280;11297;42.686;23.374;2022-08-01T03:09:02;94838.13;;;22.57;49.55
22257;BME280;11297;42.686;23.374;2022-08-01T03:11:29;94835.09;;;22.58;50.80
22257;BME280;11297;42.686;23.374;2022-08-01T03:13:56;94827.16;;;22.65;52.51
22257;BME280;11297;42.686;23.374;2022-08-01T03:16:23;94825.66;;;22.75;49.82
22257;BME280;11297;42.686;23.374;2022-08-01T03:18:53;94826.00;;;22.84;49.88
22257;BME280;11297;42.686;23.374;2022-08-01T03:21:20;94828.28;;;22.92;49.80
22257;BME280;11297;42.686;23.374;2022-08-01T03:23:47;94830.56;;;22.87;49.19
22257;BME280;11297;42.686;23.374;2022-08-01T03:26:15;94835.88;;;22.97;49.03
22257;BME280;11297;42.686;23.374;2022-08-01T03:28:42;94841.19;;;22.94;50.69
22257;BME280;11297;42.686;23.374;2022-08-01T03:31:10;94837.00;;;22.93;49.67
22257;BME280;11297;42.686;23.374;2022-08-01T03:33:37;94830.56;;;23.04;51.60
22257;BME280;11297;42.686;23.374;2022-08-01T03:36:04;94836.22;;;23.16;49.80
22257;BME280;11297;42.686;23.374;2022-08-01T03:38:35;94833.97;;;23.05;49.55
22257;BME280;11297;42.686;23.374;2022-08-01T03:41:11;94839.63;;;23.24;48.74
22257;BME280;11297;42.686;23.374;2022-08-01T03:43:41;94838.47;;;23.28;49.41
22257;BME280;11297;42.686;23.374;2022-08-01T03:46:15;94839.59;;;23.34;49.16
22257;BME280;11297;42.686;23.374;2022-08-01T03:48:47;94841.91;;;23.15;49.07
22257;BME280;11297;42.686;23.374;2022-08-01T03:51:14;94847.56;;;23.24;49.22
22257;BME280;11297;42.686;23.374;2022-08-01T03:53:42;94849.06;;;23.28;49.12
22257;BME280;11297;42.686;23.374;2022-08-01T03:56:10;94847.56;;;23.24;49.59
22257;BME280;11297;42.686;23.374;2022-08-01T03:58:38;94837.69;;;23.45;49.19
22257;BME280;11297;42.686;23.374;2022-08-01T04:01:06;94841.84;;;23.50;48.99
22257;BME280;11297;42.686;23.374;2022-08-01T04:03:32;94840.34;;;23.38;50.26
22257;BME280;11297;42.686;23.374;2022-08-01T04:05:58;94841.75;;;23.81;49.01
22257;BME280;11297;42.686;23.374;2022-08-01T04:08:36;94849.94;;;24.07;48.65
22257;BME280;11297;42.686;23.374;2022-08-01T04:11:02;94843.09;;;24.16;46.71
22257;BME280;11297;42.686;23.374;2022-08-01T04:13:28;94851.94;;;23.89;47.96
22257;BME280;11297;42.686;23.374;2022-08-01T04:15:53;94851.50;;;24.01;48.71
22257;BME280;11297;42.686;23.374;2022-08-01T04:18:19;94851.31;;;24.39;47.55
22257;BME280;11297;42.686;23.374;2022-08-01T04:20:46;94853.56;;;24.48;47.50
22257;BME280;11297;42.686;23.374;2022-08-01T04:23:14;94848.94;;;24.52;46.82
22257;BME280;11297;42.686;23.374;2022-08-01T04:25:42;94840.31;;;24.41;46.89
22257;BME280;11297;42.686;23.374;2022-08-01T04:28:12;94845.66;;;24.30;46.52
22257;BME280;11297;42.686;23.374;2022-08-01T04:30:43;94844.97;;;24.19;48.26
22257;BME280;11297;42.686;23.374;2022-08-01T04:33:12;94855.22;;;24.17;46.43
22257;BME280;11297;42.686;23.374;2022-08-01T04:35:39;94855.09;;;24.38;47.21
22257;BME280;11297;42.686;23.374;2022-08-01T04:38:08;94846.47;;;24.24;46.34
22257;BME280;11297;42.686;23.374;2022-08-01T04:40:35;94849.72;;;24.49;47.00
22257;BME280;11297;42.686;23.374;2022-08-01T04:43:02;94846.34;;;24.45;46.33
22257;BME280;11297;42.686;23.374;2022-08-01T04:45:28;94843.31;;;24.43;46.12
22257;BME280;11297;42.686;23.374;2022-08-01T04:47:54;94844.72;;;24.57;46.71
22257;BME280;11297;42.686;23.374;2022-08-01T04:50:20;94837.97;;;24.93;45.42
22257;BME280;11297;42.686;23.374;2022-08-01T04:52:47;94844.03;;;25.01;46.29
22257;BME280;11297;42.686;23.374;2022-08-01T04:55:12;94846.81;;;24.83;45.20
22257;BME280;11297;42.686;23.374;2022-08-01T04:57:41;94849.59;;;25.16;46.16
22257;BME280;11297;42.686;23.374;2022-08-01T05:00:08;94837.22;;;25.36;45.39
22257;BME280;11297;42.686;23.374;2022-08-01T05:02:33;94834.78;;;25.15;45.43
22257;BME280;11297;42.686;23.374;2022-08-01T05:04:59;94829.97;;;25.37;45.12
22257;BME280;11297;42.686;23.374;2022-08-01T05:07:25;94836.66;;;25.55;43.59
22257;BME280;11297;42.686;23.374;2022-08-01T05:09:50;94832.59;;;25.07;45.18
22257;BME280;11297;42.686;23.374;2022-08-01T05:12:16;94806.28;;;25.16;44.22
22257;BME280;11297;42.686;23.374;2022-08-01T05:14:41;94829.06;;;25.50;44.87
22257;BME280;11297;42.686;23.374;2022-08-01T05:17:08;94822.00;;;25.37;46.67
22257;BME280;11297;42.686;23.374;2022-08-01T05:19:34;94827.13;;;25.54;44.44
22257;BME280;11297;42.686;23.374;2022-08-01T05:22:01;94818.28;;;25.64;44.82
22257;BME280;11297;42.686;23.374;2022-08-01T05:24:33;94818.81;;;25.85;42.96
22257;BME280;11297;42.686;23.374;2022-08-01T05:26:59;94820.41;;;25.79;42.80
22257;BME280;11297;42.686;23.374;2022-08-01T05:29:25;94820.59;;;25.95;42.01
22257;BME280;11297;42.686;23.374;2022-08-01T05:31:51;94824.53;;;26.13;43.80
22257;BME280;11297;42.686;23.374;2022-08-01T05:34:16;94825.19;;;26.21;43.16
22257;BME280;11297;42.686;23.374;2022-08-01T05:36:42;94819.84;;;26.21;41.74
22257;BME280;11297;42.686;23.374;2022-08-01T05:39:08;94821.41;;;26.18;41.58
22257;BME280;11297;42.686;23.374;2022-08-01T05:41:33;94820.38;;;26.39;43.62
22257;BME280;11297;42.686;23.374;2022-08-01T05:43:59;94834.13;;;26.60;42.42
22257;BME280;11297;42.686;23.374;2022-08-01T05:46:24;94828.78;;;26.37;40.84
22257;BME280;11297;42.686;23.374;2022-08-01T05:48:50;94831.56;;;26.27;41.63
22257;BME280;11297;42.686;23.374;2022-08-01T05:51:15;94825.59;;;26.19;40.23
22257;BME280;11297;42.686;23.374;2022-08-01T05:53:40;94831.72;;;26.16;41.19
22257;BME280;11297;42.686;23.374;2022-08-01T05:56:06;94837.34;;;26.22;42.62
22257;BME280;11297;42.686;23.374;2022-08-01T05:58:32;94830.53;;;26.47;41.38
22257;BME280;11297;42.686;23.374;2022-08-01T06:00:57;94838.38;;;26.57;41.11
22257;BME280;11297;42.686;23.374;2022-08-01T06:03:23;94832.94;;;26.91;39.67
22257;BME280;11297;42.686;23.374;2022-08-01T06:05:48;94826.59;;;27.04;39.51
22257;BME280;11297;42.686;23.374;2022-08-01T06:08:14;94823.34;;;27.16;40.14
22257;BME280;11297;42.686;23.374;2022-08-01T06:10:39;94823.97;;;27.23;39.78
22257;BME280;11297;42.686;23.374;2022-08-01T06:13:05;94818.31;;;27.21;37.89
22257;BME280;11297;42.686;23.374;2022-08-01T06:15:31;94827.78;;;27.22;39.72
22257;BME280;11297;42.686;23.374;2022-08-01T06:17:57;94821.66;;;27.02;38.55
22257;BME280;11297;42.686;23.374;2022-08-01T06:20:22;94829.31;;;27.23;40.99
22257;BME280;11297;42.686;23.374;2022-08-01T06:22:48;94826.13;;;27.32;39.95
22257;BME280;11297;42.686;23.374;2022-08-01T06:25:13;94829.00;;;27.18;38.34
22257;BME280;11297;42.686;23.374;2022-08-01T06:27:38;94830.00;;;27.27;38.78
22257;BME280;11297;42.686;23.374;2022-08-01T06:30:04;94821.56;;;27.09;38.71
22257;BME280;11297;42.686;23.374;2022-08-01T06:32:30;94824.25;;;27.29;38.08
22257;BME280;11297;42.686;23.374;2022-08-01T06:34:56;94829.53;;;27.32;38.75
22257;BME280;11297;42.686;23.374;2022-08-01T06:37:22;94815.47;;;27.28;37.10
22257;BME280;11297;42.686;23.374;2022-08-01T06:39:47;94822.44;;;27.22;37.22
22257;BME280;11297;42.686;23.374;2022-08-01T06:42:14;94814.25;;;27.33;37.04
22257;BME280;11297;42.686;23.374;2022-08-01T06:44:40;94804.28;;;27.37;37.37
22257;BME280;11297;42.686;23.374;2022-08-01T06:47:06;94818.94;;;27.48;36.91
22257;BME280;11297;42.686;23.374;2022-08-01T06:49:31;94813.56;;;27.71;39.49
22257;BME280;11297;42.686;23.374;2022-08-01T06:51:57;94801.09;;;27.64;37.19
22257;BME280;11297;42.686;23.374;2022-08-01T06:54:22;94803.63;;;27.52;36.64
22257;BME280;11297;42.686;23.374;2022-08-01T06:56:48;94802.78;;;27.74;36.77
22257;BME280;11297;42.686;23.374;2022-08-01T06:59:13;94791.28;;;28.32;38.37
22257;BME280;11297;42.686;23.374;2022-08-01T07:01:39;94788.50;;;28.35;35.38
22257;BME280;11297;42.686;23.374;2022-08-01T07:04:04;94793.03;;;28.03;37.91
22257;BME280;11297;42.686;23.374;2022-08-01T07:06:30;94794.16;;;27.86;36.05
22257;BME280;11297;42.686;23.374;2022-08-01T07:08:56;94789.50;;;27.90;35.92
22257;BME280;11297;42.686;23.374;2022-08-01T07:11:23;94795.25;;;27.89;35.32
22257;BME280;11297;42.686;23.374;2022-08-01T07:13:48;94796.78;;;28.05;35.72
22257;BME280;11297;42.686;23.374;2022-08-01T07:16:15;94788.66;;;27.93;35.27
22257;BME280;11297;42.686;23.374;2022-08-01T07:18:41;94789.81;;;27.92;35.50
22257;BME280;11297;42.686;23.374;2022-08-01T07:21:06;94792.84;;;27.94;36.79
22257;BME280;11297;42.686;23.374;2022-08-01T07:23:32;94793.19;;;27.96;36.34
22257;BME280;11297;42.686;23.374;2022-08-01T07:25:57;94798.84;;;27.98;35.94
22257;BME280;11297;42.686;23.374;2022-08-01T07:28:24;94788.97;;;27.79;35.47
22257;BME280;11297;42.686;23.374;2022-08-01T07:30:49;94799.09;;;27.68;37.20
22257;BME280;11297;42.686;23.374;2022-08-01T07:33:15;94790.22;;;27.75;35.60
22257;BME280;11297;42.686;23.374;2022-08-01T07:35:41;94795.13;;;27.76;35.44
22257;BME280;11297;42.686;23.374;2022-08-01T07:38:07;94791.03;;;27.72;35.70
22257;BME280;11297;42.686;23.374;2022-08-01T07:40:33;94795.34;;;27.85;35.75
22257;BME280;11297;42.686;23.374;2022-08-01T07:42:58;94793.16;;;28.15;36.92
22257;BME280;11297;42.686;23.374;2022-08-01T07:45:24;94803.78;;;28.19;36.28
22257;BME280;11297;42.686;23.374;2022-08-01T07:47:49;94773.13;;;28.23;37.60
22257;BME280;11297;42.686;23.374;2022-08-01T07:50:15;94801.97;;;28.32;35.15
22257;BME280;11297;42.686;23.374;2022-08-01T07:52:41;94799.81;;;28.07;35.81
22257;BME280;11297;42.686;23.374;2022-08-01T07:55:07;94793.69;;;28.07;37.91
22257;BME280;11297;42.686;23.374;2022-08-01T07:57:33;94798.13;;;28.33;36.76
22257;BME280;11297;42.686;23.374;2022-08-01T07:59:59;94798.31;;;28.42;37.57
22257;BME280;11297;42.686;23.374;2022-08-01T08:02:24;94786.00;;;28.44;36.13
22257;BME280;11297;42.686;23.374;2022-08-01T08:04:49;94800.34;;;28.69;35.42
22257;BME280;11297;42.686;23.374;2022-08-01T08:07:15;94810.03;;;28.47;36.28
22257;BME280;11297;42.686;23.374;2022-08-01T08:09:41;94805.16;;;28.42;37.45
22257;BME280;11297;42.686;23.374;2022-08-01T08:12:06;94803.13;;;28.31;35.85
22257;BME280;11297;42.686;23.374;2022-08-01T08:14:32;94783.31;;;28.12;35.38
22257;BME280;11297;42.686;23.374;2022-08-01T08:16:57;94797.53;;;28.25;37.66
22257;BME280;11297;42.686;23.374;2022-08-01T08:19:23;94786.81;;;28.76;35.01
22257;BME280;11297;42.686;23.374;2022-08-01T08:21:48;94779.47;;;28.80;36.80
22257;BME280;11297;42.686;23.374;2022-08-01T08:24:13;94803.34;;;28.87;36.77
22257;BME280;11297;42.686;23.374;2022-08-01T08:26:46;94796.31;;;28.93;35.70
22257;BME280;11297;42.686;23.374;2022-08-01T08:29:11;94784.78;;;28.64;34.87
22257;BME280;11297;42.686;23.374;2022-08-01T08:31:37;94785.03;;;28.54;34.99
22257;BME280;11297;42.686;23.374;2022-08-01T08:34:02;94793.66;;;28.77;37.21
22257;BME280;11297;42.686;23.374;2022-08-01T08:36:28;94792.22;;;29.04;35.00
22257;BME280;11297;42.686;23.374;2022-08-01T08:38:53;94793.66;;;28.77;35.17
22257;BME280;11297;42.686;23.374;2022-08-01T08:41:20;94795.16;;;28.78;34.85
22257;BME280;11297;42.686;23.374;2022-08-01T08:43:46;94796.84;;;28.88;34.82
22257;BME280;11297;42.686;23.374;2022-08-01T08:46:14;94797.50;;;28.76;34.43
22257;BME280;11297;42.686;23.374;2022-08-01T08:48:40;94792.31;;;28.85;34.82
22257;BME280;11297;42.686;23.374;2022-08-01T08:51:07;94790.13;;;28.64;33.90
22257;BME280;11297;42.686;23.374;2022-08-01T08:53:35;94793.31;;;28.91;36.18
22257;BME280;11297;42.686;23.374;2022-08-01T08:56:02;94770.53;;;29.15;34.03
22257;BME280;11297;42.686;23.374;2022-08-01T08:58:27;94782.06;;;29.12;33.26
22257;BME280;11297;42.686;23.374;2022-08-01T09:00:54;94762.47;;;29.31;36.11
22257;BME280;11297;42.686;23.374;2022-08-01T09:03:20;94761.91;;;29.51;33.61
22257;BME280;11297;42.686;23.374;2022-08-01T09:05:45;94780.69;;;29.64;34.28
22257;BME280;11297;42.686;23.374;2022-08-01T09:08:11;94771.19;;;29.75;33.67
22257;BME280;11297;42.686;23.374;2022-08-01T09:10:37;94777.28;;;29.76;31.95
22257;BME280;11297;42.686;23.374;2022-08-01T09:18:07;94765.31;;;29.40;32.42
22257;BME280;11297;42.686;23.374;2022-08-01T09:20:33;94774.88;;;29.25;33.20
22257;BME280;11297;42.686;23.374;2022-08-01T09:23:02;94774.03;;;29.28;32.73
22257;BME280;11297;42.686;23.374;2022-08-01T09:25:29;94760.50;;;29.03;32.75
22257;BME280;11297;42.686;23.374;2022-08-01T09:28:03;94775.47;;;29.00;33.42
22257;BME280;11297;42.686;23.374;2022-08-01T09:30:36;94760.38;;;28.94;35.04
22257;BME280;11297;42.686;23.374;2022-08-01T09:33:04;94768.22;;;29.01;33.95
22257;BME280;11297;42.686;23.374;2022-08-01T09:35:32;94766.59;;;29.19;36.35
22257;BME280;11297;42.686;23.374;2022-08-01T09:38:18;94763.38;;;29.52;32.79
22257;BME280;11297;42.686;23.374;2022-08-01T09:40:52;94771.78;;;29.67;32.69
22257;BME280;11297;42.686;23.374;2022-08-01T09:43:20;94777.56;;;29.53;31.73
22257;BME280;11297;42.686;23.374;2022-08-01T09:45:46;94768.00;;;29.52;33.68
22257;BME280;11297;42.686;23.374;2022-08-01T09:48:12;94765.69;;;29.66;34.85
22257;BME280;11297;42.686;23.374;2022-08-01T09:50:42;94769.97;;;29.76;30.92
22257;BME280;11297;42.686;23.374;2022-08-01T09:53:09;94758.81;;;29.65;30.80
22257;BME280;11297;42.686;23.374;2022-08-01T09:55:35;94780.13;;;29.56;32.68
22257;BME280;11297;42.686;23.374;2022-08-01T09:58:00;94768.91;;;29.33;31.59
22257;BME280;11297;42.686;23.374;2022-08-01T10:00:27;94764.75;;;29.32;31.79
22257;BME280;11297;42.686;23.374;2022-08-01T10:02:52;94738.22;;;29.22;31.93
22257;BME280;11297;42.686;23.374;2022-08-01T10:05:33;94772.06;;;28.84;32.40
22257;BME280;11297;42.686;23.374;2022-08-01T10:08:04;94761.38;;;28.84;33.48
22257;BME280;11297;42.686;23.374;2022-08-01T10:10:30;94750.81;;;28.93;32.81
22257;BME280;11297;42.686;23.374;2022-08-01T10:12:58;94750.88;;;28.77;33.67
22257;BME280;11297;42.686;23.374;2022-08-01T10:15:26;94753.22;;;29.03;34.44
22257;BME280;11297;42.686;23.374;2022-08-01T10:18:00;94751.63;;;29.06;34.27
22257;BME280;11297;42.686;23.374;2022-08-01T10:20:28;94753.06;;;29.10;33.22
22257;BME280;11297;42.686;23.374;2022-08-01T10:22:55;94744.03;;;29.04;33.58
22257;BME280;11297;42.686;23.374;2022-08-01T10:25:23;94749.44;;;29.17;33.45
22257;BME280;11297;42.686;23.374;2022-08-01T10:27:53;94748.16;;;29.21;33.10
22257;BME280;11297;42.686;23.374;2022-08-01T10:30:23;94743.47;;;29.53;34.26
22257;BME280;11297;42.686;23.374;2022-08-01T10:32:49;94737.06;;;29.63;33.70
22257;BME280;11297;42.686;23.374;2022-08-01T10:35:17;94740.78;;;29.53;35.59
22257;BME280;11297;42.686;23.374;2022-08-01T10:37:45;94735.63;;;29.87;36.00
22257;BME280;11297;42.686;23.374;2022-08-01T10:40:14;94736.00;;;29.73;33.56
22257;BME280;11297;42.686;23.374;2022-08-01T10:42:44;94740.72;;;29.69;33.44
22257;BME280;11297;42.686;23.374;2022-08-01T10:45:13;94735.19;;;29.48;34.66
22257;BME280;11297;42.686;23.374;2022-08-01T10:47:50;94731.97;;;29.12;32.62
22257;BME280;11297;42.686;23.374;2022-08-01T10:50:54;94743.94;;;29.08;33.64
22257;BME280;11297;42.686;23.374;2022-08-01T10:53:24;94739.31;;;28.64;34.01
22257;BME280;11297;42.686;23.374;2022-08-01T11:00:47;94725.50;;;28.66;34.57
22257;BME280;11297;42.686;23.374;2022-08-01T11:03:12;94734.63;;;28.52;33.83
22257;BME280;11297;42.686;23.374;2022-08-01T11:05:40;94726.69;;;28.65;36.08
22257;BME280;11297;42.686;23.374;2022-08-01T11:08:21;94731.03;;;28.59;35.24
22257;BME280;11297;42.686;23.374;2022-08-01T11:10:47;94726.34;;;28.63;35.68
22257;BME280;11297;42.686;23.374;2022-08-01T11:13:12;94729.44;;;28.45;34.25
22257;BME280;11297;42.686;23.374;2022-08-01T11:15:39;94733.72;;;28.43;33.93
22257;BME280;11297;42.686;23.374;2022-08-01T11:20:56;94725.53;;;28.18;34.68
22257;BME280;11297;42.686;23.374;2022-08-01T11:23:23;94709.31;;;28.09;34.83
22257;BME280;11297;42.686;23.374;2022-08-01T11:30:45;94715.06;;;28.08;35.06
22257;BME280;11297;42.686;23.374;2022-08-01T11:33:12;94705.53;;;28.07;35.32
22257;BME280;11297;42.686;23.374;2022-08-01T11:41:25;94705.34;;;27.98;36.20
22257;BME280;11297;42.686;23.374;2022-08-01T11:44:11;94710.06;;;28.10;35.56
22257;BME280;11297;42.686;23.374;2022-08-01T11:49:45;94716.84;;;27.95;35.31
22257;BME280;11297;42.686;23.374;2022-08-01T11:52:27;94704.75;;;27.75;35.85
22257;BME280;11297;42.686;23.374;2022-08-01T11:55:01;94713.16;;;27.73;35.25
22257;BME280;11297;42.686;23.374;2022-08-01T11:57:31;94703.50;;;27.79;35.97
22257;BME280;11297;42.686;23.374;2022-08-01T12:00:18;94706.13;;;27.63;35.53
22257;BME280;11297;42.686;23.374;2022-08-01T12:02:45;94713.34;;;27.82;36.85
22257;BME280;11297;42.686;23.374;2022-08-01T12:05:13;94704.69;;;27.94;40.58
22257;BME280;11297;42.686;23.374;2022-08-01T12:07:41;94705.75;;;27.81;35.97
22257;BME280;11297;42.686;23.374;2022-08-01T12:10:09;94700.75;;;27.83;36.72
22257;BME280;11297;42.686;23.374;2022-08-01T12:12:36;94711.88;;;27.97;36.72
22257;BME280;11297;42.686;23.374;2022-08-01T12:15:08;94706.16;;;27.95;36.63
22257;BME280;11297;42.686;23.374;2022-08-01T12:20:05;94715.19;;;28.01;36.27
22257;BME280;11297;42.686;23.374;2022-08-01T12:22:31;94715.19;;;28.01;35.85
22257;BME280;11297;42.686;23.374;2022-08-01T12:25:14;94708.47;;;28.12;39.61
22257;BME280;11297;42.686;23.374;2022-08-01T12:27:41;94706.25;;;28.27;39.28
22257;BME280;11297;42.686;23.374;2022-08-01T12:30:10;94712.50;;;28.20;35.96
22257;BME280;11297;42.686;23.374;2022-08-01T12:32:38;94713.25;;;28.37;36.31
22257;BME280;11297;42.686;23.374;2022-08-01T12:35:12;94705.53;;;28.54;35.51
22257;BME280;11297;42.686;23.374;2022-08-01T12:37:44;94714.25;;;28.58;35.20
22257;BME280;11297;42.686;23.374;2022-08-01T12:40:21;94696.34;;;28.55;35.52
22257;BME280;11297;42.686;23.374;2022-08-01T12:42:58;94706.22;;;28.42;34.25
22257;BME280;11297;42.686;23.374;2022-08-01T12:47:55;94700.56;;;28.41;36.90
22257;BME280;11297;42.686;23.374;2022-08-01T12:50:24;94694.53;;;28.52;36.70
22257;BME280;11297;42.686;23.374;2022-08-01T12:52:51;94673.94;;;28.65;37.29
22257;BME280;11297;42.686;23.374;2022-08-01T12:55:23;94692.31;;;28.95;37.09
22257;BME280;11297;42.686;23.374;2022-08-01T12:58:03;94694.41;;;28.88;34.61
22257;BME280;11297;42.686;23.374;2022-08-01T13:00:29;94692.66;;;28.81;35.55
22257;BME280;11297;42.686;23.374;2022-08-01T13:03:06;94690.25;;;28.71;36.15
22257;BME280;11297;42.686;23.374;2022-08-01T13:05:42;94694.41;;;28.56;35.75
22257;BME280;11297;42.686;23.374;2022-08-01T13:08:16;94686.97;;;28.63;36.20
22257;BME280;11297;42.686;23.374;2022-08-01T13:10:43;94687.81;;;28.60;35.65
22257;BME280;11297;42.686;23.374;2022-08-01T13:13:09;94680.13;;;28.62;35.47
22257;BME280;11297;42.686;23.374;2022-08-01T13:15:36;94679.38;;;28.78;35.15
22257;BME280;11297;42.686;23.374;2022-08-01T13:20:48;94675.53;;;28.79;36.88
22257;BME280;11297;42.686;23.374;2022-08-01T13:23:18;94682.44;;;28.92;36.21
22257;BME280;11297;42.686;23.374;2022-08-01T13:26:02;94678.50;;;28.68;35.01
22257;BME280;11297;42.686;23.374;2022-08-01T13:28:28;94666.59;;;28.69;35.43
22257;BME280;11297;42.686;23.374;2022-08-01T13:31:05;94674.28;;;28.83;38.03
22257;BME280;11297;42.686;23.374;2022-08-01T13:33:47;94670.59;;;28.77;36.23
22257;BME280;11297;42.686;23.374;2022-08-01T13:36:14;94671.09;;;28.72;35.64
22257;BME280;11297;42.686;23.374;2022-08-01T13:38:41;94663.84;;;28.73;35.59